Time;durP1;ratioP1;P1;durP2;ratioP2;P2;SDS_P1;SDS_P2;PMS_P1;PMS_P2;Temp;Humidity;BMP_temperature;BMP_pressure;BME280_temperature;BME280_humidity;BME280_pressure;Samples;Min_cycle;Max_cycle;Signal;HPM_P1;HPM_P2
2021/03/31 00:01:20;;;;;;;3.08;1.33;;;12.90;47.60;;;;;;2618130;52;20927;-64
2021/03/31 00:03:52;;;;;;;2.75;1.15;;;12.80;47.60;;;;;;2617469;52;20993;-66
2021/03/31 00:06:18;;;;;;;3.10;1.30;;;12.80;47.80;;;;;;2366188;53;21471;-63
2021/03/31 00:08:46;;;;;;;2.92;1.33;;;12.70;47.80;;;;;;2366301;53;20981;-62
2021/03/31 00:11:12;;;;;;;3.60;1.50;;;12.70;47.90;;;;;;2366743;53;20922;-65
2021/03/31 00:13:39;;;;;;;4.15;1.40;;;12.60;48.10;;;;;;2604078;52;20954;-66
2021/03/31 00:16:06;;;;;;;2.60;1.25;;;12.60;48.10;;;;;;2352110;53;20921;-62
2021/03/31 00:18:32;;;;;;;3.03;1.17;;;12.50;48.10;;;;;;2367031;53;20873;-65
2021/03/31 00:21:00;;;;;;;3.75;1.70;;;12.50;48.20;;;;;;2366777;53;20902;-63
2021/03/31 00:23:27;;;;;;;4.28;1.35;;;12.40;48.20;;;;;;2366112;53;20937;-65
2021/03/31 00:25:54;;;;;;;2.37;1.12;;;12.40;48.30;;;;;;2366436;53;20997;-66
2021/03/31 00:28:20;;;;;;;2.85;1.33;;;12.40;48.40;;;;;;2366583;53;20896;-64
2021/03/31 00:30:46;;;;;;;3.28;1.60;;;12.40;48.50;;;;;;2618026;52;20937;-64
2021/03/31 00:33:13;;;;;;;5.95;1.67;;;12.30;48.50;;;;;;2366723;53;20961;-63
2021/03/31 00:35:39;;;;;;;2.62;1.20;;;12.30;48.50;;;;;;2355020;53;20918;-64
2021/03/31 00:38:09;;;;;;;2.75;1.23;;;12.20;48.50;;;;;;2355440;53;20964;-63
2021/03/31 00:40:52;;;;;;;4.32;1.48;;;12.20;48.50;;;;;;2338453;54;21000;-64
2021/03/31 00:43:22;;;;;;;2.80;1.20;;;12.20;48.70;;;;;;2366639;53;21025;-64
2021/03/31 00:45:49;;;;;;;2.95;1.25;;;12.10;48.60;;;;;;2350895;53;21017;-66
2021/03/31 00:48:16;;;;;;;3.55;1.40;;;12.10;48.60;;;;;;2366645;53;20938;-63
2021/03/31 00:50:47;;;;;;;3.08;1.37;;;12.00;48.70;;;;;;2618325;52;20913;-65
2021/03/31 00:53:15;;;;;;;3.00;1.10;;;12.00;48.80;;;;;;2354441;53;20991;-66
2021/03/31 00:55:42;;;;;;;3.12;1.20;;;12.00;48.80;;;;;;2362807;53;20912;-62
2021/03/31 00:58:11;;;;;;;5.55;1.30;;;11.90;48.70;;;;;;2366480;53;20946;-66
2021/03/31 01:00:37;;;;;;;2.50;1.17;;;11.90;48.80;;;;;;2617366;52;20925;-64
2021/03/31 01:03:03;;;;;;;2.87;1.17;;;11.80;48.80;;;;;;2328551;54;20933;-65
2021/03/31 01:05:30;;;;;;;2.80;1.30;;;11.80;48.80;;;;;;2351203;53;20945;-62
2021/03/31 01:07:57;;;;;;;3.08;1.30;;;11.80;48.90;;;;;;2352860;53;20938;-65
2021/03/31 01:10:47;;;;;;;3.03;1.12;;;11.70;48.90;;;;;;2618700;52;20960;-64
2021/03/31 01:20:19;;;;;;;2.40;1.05;;;11.70;49.00;;;;;;2366101;53;20904;-62
2021/03/31 01:23:27;;;;;;;2.30;1.00;;;11.60;48.80;;;;;;2365899;53;20965;-64
2021/03/31 01:26:07;;;;;;;3.12;1.00;;;11.50;49.00;;;;;;2366409;53;21044;-65
2021/03/31 01:28:44;;;;;;;2.10;0.95;;;11.50;49.10;;;;;;2618152;52;20962;-65
2021/03/31 01:38:02;;;;;;;3.90;1.60;;;11.40;49.20;;;;;;2606943;52;21645;-65
2021/03/31 01:40:28;;;;;;;2.83;1.23;;;11.40;49.10;;;;;;2367118;53;20925;-65
2021/03/31 01:43:00;;;;;;;3.53;1.60;;;11.30;49.10;;;;;;2361604;53;20962;-63
2021/03/31 01:45:30;;;;;;;3.90;1.80;;;11.30;49.40;;;;;;2356294;53;21435;-65
2021/03/31 01:47:59;;;;;;;3.75;1.60;;;11.30;49.60;;;;;;2368447;53;20981;-65
2021/03/31 01:50:26;;;;;;;4.22;1.95;;;11.20;49.60;;;;;;2617719;52;20898;-65
2021/03/31 01:52:52;;;;;;;4.55;2.08;;;11.20;49.70;;;;;;2365787;53;21128;-62
2021/03/31 01:55:19;;;;;;;4.50;2.10;;;11.20;49.80;;;;;;2366008;53;20997;-64
2021/03/31 01:57:45;;;;;;;5.37;1.58;;;11.20;49.90;;;;;;2351076;53;20962;-62
2021/03/31 02:00:13;;;;;;;4.07;1.90;;;11.10;49.80;;;;;;2366489;53;21695;-64
2021/03/31 02:02:40;;;;;;;3.45;1.67;;;11.10;49.90;;;;;;2618439;52;20961;-63
2021/03/31 02:05:09;;;;;;;3.67;1.70;;;11.10;49.90;;;;;;2366144;53;20985;-64
2021/03/31 02:07:35;;;;;;;3.62;1.60;;;11.10;50.00;;;;;;2367063;53;21221;-64
2021/03/31 02:10:06;;;;;;;3.17;1.50;;;11.10;50.00;;;;;;2366704;53;22506;-65
2021/03/31 02:12:32;;;;;;;3.72;1.27;;;11.10;50.60;;;;;;2591721;53;20976;-65
2021/03/31 02:15:01;;;;;;;2.90;1.35;;;11.00;50.00;;;;;;2366445;53;20893;-63
2021/03/31 02:17:28;;;;;;;3.08;1.20;;;11.00;50.00;;;;;;2363787;53;20994;-65
2021/03/31 02:19:54;;;;;;;4.95;1.40;;;11.00;50.00;;;;;;2354136;53;20917;-65
2021/03/31 02:22:22;;;;;;;2.95;1.27;;;11.00;50.10;;;;;;2350096;53;21078;-66
2021/03/31 02:24:48;;;;;;;4.43;1.50;;;10.90;50.10;;;;;;2366291;53;20942;-64
2021/03/31 02:27:15;;;;;;;2.55;1.10;;;10.90;50.00;;;;;;2356624;53;21037;-62
2021/03/31 02:29:44;;;;;;;2.55;1.15;;;10.90;50.00;;;;;;2588180;52;20945;-65
2021/03/31 02:32:11;;;;;;;3.22;1.15;;;10.90;50.10;;;;;;2346890;53;21922;-63
2021/03/31 02:34:37;;;;;;;2.08;1.10;;;10.80;50.00;;;;;;2589375;53;20909;-65
2021/03/31 02:37:05;;;;;;;2.78;1.27;;;10.80;50.10;;;;;;2343418;53;20924;-63
2021/03/31 02:39:36;;;;;;;4.97;1.45;;;10.80;50.10;;;;;;2343969;53;22194;-65
2021/03/31 02:42:10;;;;;;;2.70;1.12;;;10.80;50.30;;;;;;2342718;53;20969;-62
2021/03/31 02:44:41;;;;;;;2.25;1.00;;;10.70;50.30;;;;;;2343373;53;20988;-65
2021/03/31 02:47:07;;;;;;;3.60;1.30;;;10.70;50.30;;;;;;2347352;53;20979;-64
2021/03/31 02:49:36;;;;;;;4.50;1.15;;;10.70;50.30;;;;;;2343393;53;20925;-66
2021/03/31 02:52:03;;;;;;;3.00;1.30;;;10.70;50.30;;;;;;2589047;53;21420;-63
2021/03/31 02:54:29;;;;;;;2.05;1.00;;;10.60;50.20;;;;;;2348392;53;20980;-64
2021/03/31 02:56:55;;;;;;;2.78;1.10;;;10.60;50.30;;;;;;2342961;53;20942;-65
2021/03/31 02:59:22;;;;;;;2.72;1.05;;;10.60;50.90;;;;;;2343353;53;20928;-65
2021/03/31 03:01:48;;;;;;;3.28;1.30;;;10.60;50.40;;;;;;2346613;53;21484;-64
2021/03/31 03:04:14;;;;;;;4.95;1.50;;;10.50;50.40;;;;;;2343500;53;20988;-62
2021/03/31 03:06:40;;;;;;;2.95;1.27;;;10.50;50.50;;;;;;2343509;53;21460;-65
2021/03/31 03:09:07;;;;;;;2.87;1.48;;;10.50;50.50;;;;;;2589657;53;20945;-62
2021/03/31 03:11:34;;;;;;;2.85;1.23;;;10.50;50.60;;;;;;2348112;53;20984;-64
2021/03/31 03:14:03;;;;;;;3.05;1.30;;;10.40;50.60;;;;;;2342394;53;20984;-64
2021/03/31 03:16:29;;;;;;;3.12;1.30;;;10.40;50.60;;;;;;2347056;53;21388;-65
2021/03/31 03:18:56;;;;;;;3.45;1.48;;;10.40;50.60;;;;;;2346870;53;21043;-62
2021/03/31 03:21:22;;;;;;;3.08;1.42;;;10.40;50.60;;;;;;2329425;54;21754;-64
2021/03/31 03:23:48;;;;;;;3.62;1.50;;;10.30;50.60;;;;;;2338447;53;21020;-62
2021/03/31 03:26:16;;;;;;;3.92;1.42;;;10.30;50.70;;;;;;2347740;53;21004;-65
2021/03/31 03:28:44;;;;;;;3.45;1.58;;;10.30;50.80;;;;;;2608605;52;20962;-64
2021/03/31 03:31:11;;;;;;;4.35;1.70;;;10.30;50.90;;;;;;2624128;52;20903;-62
2021/03/31 03:33:37;;;;;;;4.35;1.30;;;10.20;50.80;;;;;;2360512;53;20923;-64
2021/03/31 03:36:08;;;;;;;6.50;1.37;;;10.20;50.80;;;;;;2364713;53;20925;-63
2021/03/31 03:38:34;;;;;;;2.92;1.17;;;10.20;50.90;;;;;;2351864;53;21364;-64
2021/03/31 03:41:15;;;;;;;2.70;1.20;;;10.20;50.90;;;;;;2370944;53;20950;-64
2021/03/31 03:43:41;;;;;;;2.80;1.12;;;10.10;50.80;;;;;;2371013;53;20970;-65
2021/03/31 03:46:09;;;;;;;2.92;1.37;;;10.10;50.80;;;;;;2371068;53;20994;-64
2021/03/31 03:48:35;;;;;;;2.80;1.23;;;10.10;50.90;;;;;;2624169;52;21244;-66
2021/03/31 03:51:08;;;;;;;3.30;1.30;;;10.10;50.90;;;;;;2371679;53;20918;-66
2021/03/31 03:53:34;;;;;;;;;;;10.00;50.90;;;;;;2627601;52;20926;-63
2021/03/31 03:56:01;;;;;;;3.87;1.10;;;10.00;50.90;;;;;;2368262;53;20581;-65
2021/03/31 03:58:27;;;;;;;3.58;1.48;;;10.00;50.80;;;;;;2373400;53;20950;-65
2021/03/31 04:00:55;;;;;;;3.72;1.48;;;10.00;50.90;;;;;;2349478;53;20922;-64
2021/03/31 04:03:22;;;;;;;3.20;1.50;;;9.90;51.90;;;;;;2371040;53;20898;-64
2021/03/31 04:05:48;;;;;;;3.60;1.62;;;9.90;51.90;;;;;;2357434;53;20935;-64
2021/03/31 04:08:15;;;;;;;3.67;1.50;;;9.90;52.00;;;;;;2321660;55;21678;-64
2021/03/31 04:10:41;;;;;;;4.55;1.45;;;9.90;52.00;;;;;;2607144;52;20898;-66
2021/03/31 04:13:08;;;;;;;4.53;1.42;;;9.90;52.10;;;;;;2613522;52;20947;-64
2021/03/31 04:15:35;;;;;;;2.45;1.15;;;9.90;52.30;;;;;;2338156;54;20998;-62
2021/03/31 04:18:04;;;;;;;4.50;1.20;;;9.80;52.30;;;;;;2351431;53;20984;-64
2021/03/31 04:20:31;;;;;;;2.20;1.10;;;9.90;52.40;;;;;;2371147;53;20937;-66
2021/03/31 04:22:57;;;;;;;3.30;1.12;;;9.80;52.40;;;;;;2370446;53;20918;-63
2021/03/31 04:25:24;;;;;;;3.25;1.40;;;9.90;52.60;;;;;;2623010;52;20914;-63
2021/03/31 04:27:51;;;;;;;2.50;1.20;;;9.90;52.60;;;;;;2370807;53;20966;-62
2021/03/31 04:30:19;;;;;;;3.50;1.25;;;9.90;52.60;;;;;;2339011;53;21023;-62
2021/03/31 04:32:49;;;;;;;3.92;1.70;;;9.90;52.60;;;;;;2588381;52;20955;-62
2021/03/31 04:35:17;;;;;;;5.12;2.08;;;9.90;52.80;;;;;;2343857;53;21430;-64
2021/03/31 04:37:43;;;;;;;3.67;1.87;;;9.90;52.80;;;;;;2589815;53;20992;-64
2021/03/31 04:40:12;;;;;;;4.45;1.70;;;9.90;52.90;;;;;;2343120;53;20976;-66
2021/03/31 04:42:39;;;;;;;4.00;1.98;;;9.90;52.90;;;;;;2589723;53;20941;-65
2021/03/31 04:45:06;;;;;;;4.30;1.80;;;9.90;52.80;;;;;;2343192;53;21019;-64
2021/03/31 04:47:33;;;;;;;3.55;1.52;;;9.90;52.80;;;;;;2344357;53;21696;-64
2021/03/31 04:49:59;;;;;;;4.07;1.45;;;9.90;52.80;;;;;;2343191;53;21020;-63
2021/03/31 04:52:28;;;;;;;5.12;1.90;;;10.00;51.90;;;;;;2590575;53;20959;-64
2021/03/31 04:54:54;;;;;;;2.62;1.20;;;9.90;52.70;;;;;;2335883;54;20939;-65
2021/03/31 04:57:20;;;;;;;2.80;1.30;;;9.90;52.70;;;;;;2598644;52;21047;-64
2021/03/31 04:59:51;;;;;;;3.95;1.50;;;9.90;52.70;;;;;;2362306;53;20970;-63
2021/03/31 05:02:17;;;;;;;2.55;1.30;;;9.80;52.60;;;;;;2590463;53;20957;-64
2021/03/31 05:04:44;;;;;;;5.18;1.62;;;9.80;52.60;;;;;;2366573;53;20918;-63
2021/03/31 05:07:10;;;;;;;4.12;1.55;;;9.80;52.70;;;;;;2365302;53;20917;-64
2021/03/31 05:09:40;;;;;;;4.25;1.60;;;9.80;52.50;;;;;;2365601;53;20909;-62
2021/03/31 05:12:08;;;;;;;3.92;1.23;;;9.80;52.60;;;;;;2365601;53;21020;-65
2021/03/31 05:14:34;;;;;;;3.45;1.40;;;9.70;52.50;;;;;;2353925;53;21030;-66
2021/03/31 05:17:00;;;;;;;4.55;1.42;;;9.70;52.60;;;;;;2355980;53;20978;-65
2021/03/31 05:19:28;;;;;;;2.65;1.10;;;9.70;52.60;;;;;;2356846;53;20941;-65
2021/03/31 05:21:54;;;;;;;3.35;1.40;;;9.70;52.60;;;;;;2360682;53;21049;-64
2021/03/31 05:24:20;;;;;;;4.40;1.40;;;9.60;52.60;;;;;;2355919;53;20973;-64
2021/03/31 05:26:46;;;;;;;3.87;1.48;;;9.70;52.70;;;;;;2352535;53;20922;-63
2021/03/31 05:29:13;;;;;;;3.80;1.60;;;9.60;52.70;;;;;;2363924;53;20918;-65
2021/03/31 05:31:41;;;;;;;3.47;1.42;;;9.60;52.70;;;;;;2366773;53;21009;-65
2021/03/31 05:34:07;;;;;;;4.05;1.60;;;9.60;52.80;;;;;;2366256;53;20924;-64
2021/03/31 05:36:35;;;;;;;4.20;1.50;;;9.60;52.80;;;;;;2366781;53;20885;-66
2021/03/31 05:39:02;;;;;;;3.03;1.20;;;9.60;52.90;;;;;;2604499;52;20942;-66
2021/03/31 05:41:28;;;;;;;3.00;1.20;;;9.50;52.80;;;;;;2606520;52;21000;-66
2021/03/31 05:43:56;;;;;;;2.47;1.20;;;9.50;52.90;;;;;;2361659;53;21042;-63
2021/03/31 05:46:22;;;;;;;4.60;1.48;;;9.50;52.90;;;;;;2596366;52;21001;-63
2021/03/31 05:48:49;;;;;;;2.28;1.20;;;9.50;53.00;;;;;;2619317;52;20944;-64
2021/03/31 05:51:16;;;;;;;2.47;1.20;;;9.50;53.10;;;;;;2365273;53;20957;-64
2021/03/31 05:53:42;;;;;;;5.07;1.33;;;9.50;53.10;;;;;;2368952;53;20929;-64
2021/03/31 05:56:09;;;;;;;2.60;1.12;;;9.50;53.20;;;;;;2348247;53;21885;-65
2021/03/31 05:58:36;;;;;;;3.80;1.58;;;9.50;53.20;;;;;;2364507;53;20990;-64
2021/03/31 06:01:06;;;;;;;3.28;1.17;;;9.50;53.30;;;;;;2362180;53;20933;-65
2021/03/31 06:03:33;;;;;;;3.37;1.42;;;9.50;53.40;;;;;;2619810;52;20974;-62
2021/03/31 06:06:00;;;;;;;3.83;1.50;;;9.50;53.30;;;;;;2618320;52;20958;-64
2021/03/31 06:08:27;;;;;;;3.40;1.50;;;9.50;53.50;;;;;;2360761;53;21046;-66
2021/03/31 06:10:59;;;;;;;4.60;1.67;;;9.50;53.60;;;;;;2345271;53;21048;-66
2021/03/31 06:13:26;;;;;;;3.35;1.50;;;9.50;53.70;;;;;;2368618;53;21029;-65
2021/03/31 06:15:52;;;;;;;3.25;1.42;;;9.60;53.80;;;;;;2354790;53;20960;-64
2021/03/31 06:18:19;;;;;;;4.28;1.90;;;9.60;53.80;;;;;;2350578;53;20986;-64
2021/03/31 06:21:02;;;;;;;4.03;2.20;;;9.60;53.90;;;;;;2368903;53;20968;-64
2021/03/31 06:24:10;;;;;;;5.22;2.28;;;9.70;54.10;;;;;;2599489;52;20961;-64
2021/03/31 06:26:41;;;;;;;3.25;1.80;;;9.70;54.10;;;;;;2371547;53;21020;-65
2021/03/31 06:29:08;;;;;;;5.07;2.30;;;9.80;54.20;;;;;;2595161;52;21427;-64
2021/03/31 06:31:43;;;;;;;5.07;2.45;;;9.80;54.30;;;;;;2361981;53;20917;-63
2021/03/31 06:34:33;;;;;;;5.12;1.90;;;9.90;54.50;;;;;;2354604;53;20970;-66
2021/03/31 06:37:04;;;;;;;7.43;2.20;;;9.90;54.50;;;;;;2616680;52;20901;-64
2021/03/31 06:39:34;;;;;;;5.68;2.12;;;10.00;53.90;;;;;;2366167;53;20964;-63
2021/03/31 06:42:22;;;;;;;4.03;2.12;;;10.10;54.40;;;;;;2618216;52;20997;-63
2021/03/31 06:45:02;;;;;;;4.35;1.67;;;10.30;56.20;;;;;;2354593;53;20934;-63
2021/03/31 06:47:43;;;;;;;4.30;1.85;;;10.70;58.40;;;;;;2591518;52;20945;-64
2021/03/31 06:50:11;;;;;;;3.53;1.58;;;11.20;60.60;;;;;;2364115;53;20975;-66
2021/03/31 06:52:57;;;;;;;4.68;1.90;;;11.90;61.80;;;;;;2574011;52;21221;-62
2021/03/31 06:55:24;;;;;;;3.85;1.77;;;12.50;60.70;;;;;;2350209;53;20943;-64
2021/03/31 06:57:52;;;;;;;5.70;1.80;;;13.00;59.80;;;;;;2364242;53;20961;-64
2021/03/31 07:00:26;;;;;;;3.03;1.42;;;13.40;58.70;;;;;;2364070;53;20946;-66
2021/03/31 07:02:52;;;;;;;4.80;1.83;;;13.60;57.60;;;;;;2615694;52;21941;-66
2021/03/31 07:05:20;;;;;;;3.83;2.05;;;13.80;56.90;;;;;;2352195;53;21022;-65
2021/03/31 07:07:47;;;;;;;3.92;1.80;;;14.00;56.30;;;;;;2344831;53;20979;-65
2021/03/31 07:10:16;;;;;;;8.27;3.53;;;14.10;55.70;;;;;;2590841;52;20958;-65
2021/03/31 07:12:50;;;;;;;6.65;3.20;;;14.20;55.30;;;;;;2583440;52;20951;-64
2021/03/31 07:15:17;;;;;;;7.32;3.62;;;14.20;54.80;;;;;;2610536;52;20969;-64
2021/03/31 07:17:51;;;;;;;6.65;3.47;;;14.30;54.70;;;;;;2606304;52;20905;-64
2021/03/31 07:20:18;;;;;;;8.65;3.55;;;14.30;54.50;;;;;;2603759;52;21397;-64
2021/03/31 07:22:48;;;;;;;7.10;3.25;;;14.40;54.50;;;;;;2595193;52;21042;-65
2021/03/31 07:25:16;;;;;;;8.07;3.62;;;14.40;54.50;;;;;;2337037;53;22110;-65
2021/03/31 07:27:44;;;;;;;6.03;3.25;;;14.50;55.00;;;;;;2337848;53;21809;-65
2021/03/31 07:30:16;;;;;;;5.53;3.25;;;14.70;56.10;;;;;;2353429;53;21237;-64
2021/03/31 07:32:58;;;;;;;5.10;2.75;;;15.00;57.20;;;;;;2339579;53;21576;-68
2021/03/31 07:35:29;;;;;;;4.82;2.50;;;15.30;57.80;;;;;;2348835;53;21632;-65
2021/03/31 07:38:10;;;;;;;5.23;2.60;;;15.70;58.10;;;;;;2351814;53;20938;-65
2021/03/31 07:40:37;;;;;;;4.40;2.45;;;16.00;57.70;;;;;;2355927;53;20886;-67
2021/03/31 07:43:06;;;;;;;5.10;2.40;;;16.30;57.10;;;;;;2354304;53;21013;-65
2021/03/31 07:45:44;;;;;;;4.87;2.08;;;16.50;56.50;;;;;;2355576;53;22378;-66
2021/03/31 07:48:11;;;;;;;3.25;1.62;;;16.70;55.90;;;;;;2341209;54;20954;-66
2021/03/31 07:50:38;;;;;;;2.70;1.48;;;16.90;55.80;;;;;;2360444;53;21557;-66
2021/03/31 07:53:06;;;;;;;3.15;1.23;;;17.00;55.50;;;;;;2362106;53;20969;-65
2021/03/31 07:55:41;;;;;;;4.75;1.50;;;17.10;55.20;;;;;;2345839;53;20954;-66
2021/03/31 07:58:17;;;;;;;2.97;1.42;;;17.30;55.00;;;;;;2362081;53;21025;-66
2021/03/31 08:00:58;;;;;;;4.65;1.52;;;17.40;54.80;;;;;;2338339;53;20951;-65
2021/03/31 08:03:26;;;;;;;3.03;1.37;;;17.60;54.70;;;;;;2350340;53;21404;-65
2021/03/31 08:06:16;;;;;;;2.95;1.48;;;17.80;55.00;;;;;;2351665;53;20954;-65
2021/03/31 08:09:04;;;;;;;3.03;1.40;;;17.90;54.90;;;;;;2569267;52;20901;-65
2021/03/31 08:12:05;;;;;;;2.58;1.20;;;18.20;54.50;;;;;;2359466;53;20941;-65
2021/03/31 08:14:36;;;;;;;3.83;1.60;;;18.50;54.80;;;;;;2364907;53;21327;-66
2021/03/31 08:17:07;;;;;;;3.97;1.50;;;18.70;55.70;;;;;;2364631;53;20945;-66
2021/03/31 08:19:37;;;;;;;6.30;1.75;;;19.10;55.90;;;;;;2364512;53;21367;-66
2021/03/31 08:28:52;;;;;;;4.85;2.00;;;19.40;56.10;;;;;;2596400;52;21492;-66
2021/03/31 08:31:20;;;;;;;3.05;1.27;;;21.00;56.20;;;;;;2364075;53;20985;-65
2021/03/31 08:33:46;;;;;;;3.95;1.58;;;21.40;58.40;;;;;;2616603;52;20955;-66
2021/03/31 08:36:15;;;;;;;4.50;1.80;;;21.90;57.90;;;;;;2358935;53;20961;-63
2021/03/31 08:38:42;;;;;;;5.32;1.55;;;22.30;57.30;;;;;;2336677;54;20970;-62
2021/03/31 08:41:28;;;;;;;5.28;1.77;;;22.70;57.50;;;;;;2347523;53;21432;-63
2021/03/31 08:44:25;;;;;;;3.65;1.62;;;23.20;55.40;;;;;;2353047;53;20966;-64
2021/03/31 08:46:52;;;;;;;4.57;1.30;;;23.60;55.30;;;;;;2358331;53;20933;-63
2021/03/31 08:49:29;;;;;;;4.87;1.52;;;24.00;56.90;;;;;;2361818;53;21056;-62
2021/03/31 08:51:57;;;;;;;5.85;1.80;;;24.40;55.40;;;;;;2361189;53;20949;-62
2021/03/31 08:54:35;;;;;;;4.90;1.42;;;24.80;56.00;;;;;;2361876;53;20926;-62
2021/03/31 08:57:13;;;;;;;3.58;1.70;;;25.20;54.70;;;;;;2358376;53;20986;-62
2021/03/31 08:59:46;;;;;;;4.35;1.58;;;25.60;55.20;;;;;;2351229;53;20988;-63
2021/03/31 09:02:13;;;;;;;4.25;1.73;;;25.90;55.10;;;;;;2352063;53;21018;-65
2021/03/31 09:04:43;;;;;;;3.83;1.77;;;26.40;55.30;;;;;;2576995;53;21018;-63
2021/03/31 09:07:10;;;;;;;3.47;1.50;;;26.70;54.20;;;;;;2346434;53;20886;-62
2021/03/31 09:09:40;;;;;;;2.85;1.37;;;27.10;53.90;;;;;;2361997;53;21616;-62
2021/03/31 09:12:17;;;;;;;2.40;1.23;;;27.40;53.50;;;;;;2361683;53;21450;-62
2021/03/31 09:14:53;;;;;;;3.60;1.43;;;27.80;52.50;;;;;;2365400;53;21371;-63
2021/03/31 09:17:21;;;;;;;3.75;1.40;;;28.00;52.40;;;;;;2365075;53;20897;-64
2021/03/31 09:19:50;;;;;;;3.62;1.65;;;28.30;52.00;;;;;;2364665;53;21410;-63
2021/03/31 09:22:22;;;;;;;3.55;1.67;;;28.60;50.90;;;;;;2347639;53;20981;-65
2021/03/31 09:24:53;;;;;;;2.90;1.58;;;28.80;50.40;;;;;;2364638;53;20897;-64
2021/03/31 09:27:23;;;;;;;3.42;1.25;;;29.10;49.40;;;;;;2586881;53;21551;-64
2021/03/31 09:29:53;;;;;;;4.90;1.87;;;29.30;49.60;;;;;;2331786;54;20982;-63
2021/03/31 09:32:25;;;;;;;4.10;1.92;;;29.50;49.20;;;;;;2348107;54;20933;-63
2021/03/31 09:34:54;;;;;;;3.33;1.90;;;29.70;48.70;;;;;;2319434;53;20968;-63
2021/03/31 09:37:20;;;;;;;3.75;1.83;;;29.90;48.20;;;;;;2372493;52;2161249;-62
2021/03/31 09:39:57;;;;;;;5.87;1.90;;;30.10;47.20;;;;;;2605099;52;21498;-63
2021/03/31 09:42:34;;;;;;;7.03;2.30;;;30.30;45.00;;;;;;2327338;54;21291;-63
2021/03/31 09:45:01;;;;;;;5.03;2.60;;;30.40;45.20;;;;;;2349599;53;21006;-63
2021/03/31 09:47:29;;;;;;;7.05;2.60;;;30.40;44.00;;;;;;2360997;53;20950;-64
2021/03/31 09:49:56;;;;;;;4.43;1.92;;;30.40;43.60;;;;;;2591140;52;20974;-64
2021/03/31 09:52:31;;;;;;;3.70;1.95;;;30.40;43.50;;;;;;2357527;53;21423;-66
2021/03/31 09:55:05;;;;;;;5.18;2.83;;;30.40;42.30;;;;;;2350035;53;21025;-62
2021/03/31 09:57:32;;;;;;;5.10;2.35;;;30.40;42.30;;;;;;2349161;53;21450;-63
2021/03/31 10:00:09;;;;;;;6.10;2.15;;;30.40;42.20;;;;;;2616020;52;20954;-64
2021/03/31 10:02:39;;;;;;;7.87;2.10;;;30.50;41.90;;;;;;2364785;53;20901;-64
2021/03/31 10:05:12;;;;;;;4.05;2.03;;;30.50;42.70;;;;;;2614294;52;21521;-63
2021/03/31 10:07:38;;;;;;;5.18;2.15;;;30.60;42.20;;;;;;2347198;53;20989;-64
2021/03/31 10:10:07;;;;;;;4.68;2.10;;;30.60;43.30;;;;;;2363906;53;20976;-63
2021/03/31 10:12:34;;;;;;;5.10;2.42;;;30.70;42.30;;;;;;2364405;53;20961;-65
2021/03/31 10:15:03;;;;;;;4.45;2.28;;;30.70;42.20;;;;;;2615376;52;21660;-63
2021/03/31 10:17:32;;;;;;;4.20;2.03;;;30.70;41.90;;;;;;2367393;53;21366;-66
2021/03/31 10:20:12;;;;;;;4.37;2.00;;;30.80;41.40;;;;;;2586831;53;21087;-64
2021/03/31 10:22:38;;;;;;;3.92;2.10;;;30.70;40.10;;;;;;2351762;53;21385;-64
2021/03/31 10:25:26;;;;;;;4.62;2.28;;;30.70;41.00;;;;;;2364020;53;20914;-64
2021/03/31 10:28:36;;;;;;;5.70;2.35;;;30.70;39.20;;;;;;2354556;53;21723;-64
2021/03/31 10:31:20;;;;;;;5.50;3.00;;;30.70;39.20;;;;;;2608372;52;20987;-64
2021/03/31 10:34:03;;;;;;;5.35;2.55;;;30.70;38.40;;;;;;2356586;53;21680;-65
2021/03/31 10:41:05;;;;;;;5.35;2.22;;;30.60;38.20;;;;;;2364001;53;20921;-64
2021/03/31 10:58:26;;;;;;;4.55;1.92;;;30.40;39.60;;;;;;2615777;52;20973;-64
2021/03/31 11:00:53;;;;;;;5.15;2.40;;;30.40;41.00;;;;;;2364559;53;20933;-64
2021/03/31 11:03:21;;;;;;;4.70;2.60;;;30.30;40.40;;;;;;2364707;53;20982;-66
2021/03/31 11:05:50;;;;;;;5.95;2.65;;;30.40;40.10;;;;;;2615558;52;21509;-64
2021/03/31 11:08:16;;;;;;;4.72;2.50;;;30.50;40.20;;;;;;2366267;53;20914;-64
2021/03/31 11:10:46;;;;;;;7.28;3.03;;;30.50;40.00;;;;;;2347496;53;20945;-65
2021/03/31 11:13:12;;;;;;;5.53;2.83;;;30.60;39.30;;;;;;2364816;53;20905;-64
2021/03/31 11:15:39;;;;;;;6.03;2.75;;;30.70;39.00;;;;;;2358303;53;20926;-64
2021/03/31 11:18:17;;;;;;;5.45;2.40;;;30.80;38.80;;;;;;2344822;53;21746;-63
2021/03/31 11:26:16;;;;;;;5.62;2.28;;;30.90;38.20;;;;;;2364225;53;20957;-64
2021/03/31 11:28:42;;;;;;;4.25;2.35;;;30.90;38.20;;;;;;2615496;52;21005;-65
2021/03/31 11:31:09;;;;;;;5.32;2.70;;;31.00;38.20;;;;;;2364873;53;20946;-66
2021/03/31 11:33:36;;;;;;;4.78;2.37;;;31.10;38.60;;;;;;2364876;53;20942;-64
2021/03/31 11:36:03;;;;;;;5.37;2.42;;;31.20;38.60;;;;;;2364181;53;20925;-65
2021/03/31 11:38:29;;;;;;;6.53;2.40;;;31.40;38.50;;;;;;2616208;52;21186;-64
2021/03/31 11:40:57;;;;;;;6.07;2.35;;;31.60;38.40;;;;;;2615994;52;20957;-64
2021/03/31 11:43:23;;;;;;;4.82;2.35;;;31.70;38.10;;;;;;2346532;53;21482;-64
2021/03/31 11:45:49;;;;;;;7.60;2.75;;;31.90;37.90;;;;;;2362774;53;20953;-62
2021/03/31 11:48:16;;;;;;;6.15;2.85;;;32.10;37.50;;;;;;2357210;53;21871;-63
2021/03/31 11:50:43;;;;;;;5.45;2.53;;;32.20;37.20;;;;;;2349262;53;20925;-63
2021/03/31 11:53:09;;;;;;;4.53;2.50;;;32.40;37.40;;;;;;2361513;53;21707;-63
2021/03/31 11:55:36;;;;;;;5.95;2.70;;;32.50;37.30;;;;;;2613157;52;20941;-63
2021/03/31 11:58:03;;;;;;;5.62;2.90;;;32.70;37.10;;;;;;2588624;52;20914;-66
2021/03/31 12:00:29;;;;;;;5.72;2.85;;;32.90;36.70;;;;;;2362300;53;20976;-62
2021/03/31 12:02:55;;;;;;;5.47;2.75;;;33.00;36.60;;;;;;2352146;53;20899;-61
2021/03/31 12:05:21;;;;;;;4.85;2.33;;;33.10;36.30;;;;;;2354682;53;21463;-62
2021/03/31 12:07:50;;;;;;;4.53;2.30;;;33.20;35.70;;;;;;2358669;53;20942;-62
2021/03/31 12:10:17;;;;;;;4.85;2.53;;;33.30;35.60;;;;;;2345763;53;20981;-66
2021/03/31 12:12:43;;;;;;;5.30;2.17;;;33.30;35.20;;;;;;2364671;53;20981;-62
2021/03/31 12:15:12;;;;;;;6.32;2.60;;;33.40;35.10;;;;;;2357368;53;20942;-61
2021/03/31 12:17:39;;;;;;;3.55;1.87;;;33.40;34.80;;;;;;2605009;52;20885;-61
2021/03/31 12:20:21;;;;;;;4.20;2.30;;;33.50;35.00;;;;;;2364161;53;20965;-63
2021/03/31 12:22:49;;;;;;;4.60;1.87;;;33.60;33.70;;;;;;2364737;53;20917;-63
2021/03/31 12:25:16;;;;;;;4.22;1.85;;;33.60;34.90;;;;;;2590872;52;21013;-63
2021/03/31 12:27:45;;;;;;;4.55;2.00;;;33.70;34.30;;;;;;2360738;53;20942;-62
2021/03/31 12:30:25;;;;;;;3.40;1.60;;;33.80;34.20;;;;;;2358096;53;20914;-61
2021/03/31 12:32:51;;;;;;;4.57;1.75;;;33.90;32.50;;;;;;2355430;53;21097;-63
2021/03/31 12:35:22;;;;;;;4.82;2.00;;;33.90;34.00;;;;;;2350250;53;20954;-62
2021/03/31 12:37:48;;;;;;;4.45;1.90;;;34.00;33.60;;;;;;2350082;53;20966;-62
2021/03/31 12:40:14;;;;;;;3.30;1.62;;;34.10;33.30;;;;;;2344320;53;21662;-62
2021/03/31 12:42:41;;;;;;;6.75;1.87;;;34.10;33.20;;;;;;2612350;52;21384;-62
2021/03/31 12:45:09;;;;;;;3.47;1.62;;;34.10;32.50;;;;;;2342011;53;20937;-63
2021/03/31 12:47:38;;;;;;;4.25;1.48;;;34.10;32.10;;;;;;2357182;53;21039;-62
2021/03/31 12:50:06;;;;;;;4.40;1.35;;;34.10;31.30;;;;;;2355896;53;20974;-63
2021/03/31 12:52:43;;;;;;;4.45;1.67;;;34.10;31.00;;;;;;2350958;53;20898;-62
2021/03/31 12:55:13;;;;;;;2.45;0.93;;;34.10;31.30;;;;;;2611487;52;21801;-63
2021/03/31 12:57:42;;;;;;;4.15;1.65;;;34.10;31.50;;;;;;2360823;53;20910;-62
2021/03/31 13:00:09;;;;;;;5.78;1.60;;;34.00;31.80;;;;;;2354429;53;20919;-62
2021/03/31 13:02:35;;;;;;;3.00;1.25;;;34.00;30.70;;;;;;2327016;54;20994;-62
2021/03/31 13:05:02;;;;;;;2.90;1.25;;;34.00;31.10;;;;;;2344571;53;21100;-62
2021/03/31 13:07:30;;;;;;;6.07;1.55;;;34.00;31.10;;;;;;2349062;53;21383;-62
2021/03/31 13:10:28;;;;;;;2.90;1.27;;;34.00;30.60;;;;;;2346870;53;21527;-64
2021/03/31 13:13:04;;;;;;;4.03;1.37;;;34.00;30.90;;;;;;2350177;53;21541;-64
2021/03/31 13:15:44;;;;;;;2.55;1.23;;;34.00;30.30;;;;;;2345914;53;20925;-65
2021/03/31 13:22:14;;;;;;;3.55;1.40;;;34.00;29.70;;;;;;2361992;53;20890;-62
2021/03/31 13:24:58;;;;;;;3.53;1.50;;;33.90;30.00;;;;;;2365582;53;20913;-66
2021/03/31 13:28:06;;;;;;;4.82;1.52;;;33.80;30.00;;;;;;2364608;53;20901;-65
2021/03/31 13:34:37;;;;;;;3.75;1.00;;;33.60;30.00;;;;;;2364921;53;20941;-63
2021/03/31 13:37:14;;;;;;;2.62;1.27;;;33.50;30.00;;;;;;2364877;53;20940;-64
2021/03/31 13:39:48;;;;;;;2.90;0.93;;;33.40;29.80;;;;;;2368575;53;20890;-64
2021/03/31 13:42:14;;;;;;;3.08;1.25;;;33.30;29.40;;;;;;2365214;53;20964;-65
2021/03/31 13:44:41;;;;;;;2.58;0.95;;;33.20;29.40;;;;;;2615956;52;20901;-63
2021/03/31 13:47:11;;;;;;;3.65;1.25;;;33.10;29.40;;;;;;2364193;53;21018;-63
2021/03/31 13:49:54;;;;;;;4.22;1.15;;;33.00;29.10;;;;;;2327025;54;20937;-65
2021/03/31 13:52:27;;;;;;;2.80;0.90;;;32.90;29.10;;;;;;2356936;53;20914;-63
2021/03/31 13:54:57;;;;;;;4.43;1.00;;;32.90;29.20;;;;;;2362736;53;20969;-64
2021/03/31 13:57:27;;;;;;;3.47;1.00;;;32.80;29.10;;;;;;2352115;53;20926;-65